Accueil
METAR-TAF:

METAR-TAF

Aéroports :

Christchurch, Nouvelle-Zélande

Aéroport international de Christchurch

latitude: 43-29S, longitude: 172-33E, altitude: 38 m

Observation

Le bulletin a été fait il y a 29 minutes, à 20:00 UTC
Vent 4 kt de nord/nord-ouest
Température 3°C
Humidité 93%
Pression 1020 hPa
Visibilité 10 km ou plus

METAR: NZCH 222000Z AUTO 33004KT 9999 NCD 03/02 Q1020 NOSIG

Heure: 08:29 (20:29 UTC)

Prévision

Le bulletin a été fait il y a 3 heures et 11 minutes, à 17:18 UTC
Prévision valable du 22 à 18 UTC au 23 à 18 UTC
Vent 2 kt de direction variable
Visibilité 10 km ou plus
pas de nuages en-dessous de 1500 mètres et pas de cumulonimbus.
Evoluant progressivement
du 23 à 02 UTC au 23 à 04 UTC
Vent 10 kt de est
Evoluant progressivement
du 23 à 07 UTC au 23 à 09 UTC
Vent 8 kt de ouest/nord-ouest

TAF: NZCH 221718Z 2218/2318 VRB02KT CAVOK BECMG 2302/2304 08010KT BECMG 2307/2309 30008KT

Observations et prévisions météorologiques de plus de 4000 aéroports (messages METAR et TAF).

Les stations disponibles sont représentées par des disques jaunes et rouges sur la carte.

Passer la souris dessus pour voir le nom de la station.

Cliquer dessus pour voir les observations et prévisions météorologiques.

Pour changer de carte: cliquez sur les boutons verts avec une croix noire pour zoomer, sur le bouton vert avec un tiret pour effectuer un zoom arrière, ou sur les flèches vertes pour les cartes adjacentes.


METAR-TAF: